Time;durP1;ratioP1;P1;durP2;ratioP2;P2;SDS_P1;SDS_P2;PMS_P1;PMS_P2;Temp;Humidity;BMP_temperature;BMP_pressure;BME280_temperature;BME280_humidity;BME280_pressure;Samples;Min_cycle;Max_cycle;Signal;HPM_P1;HPM_P2
2022/08/29 00:00:28;;;;;;;;;;;16.90;99.90;;;;;;5063394;28;19959;-70
2022/08/29 00:02:58;;;;;;;;;;;16.90;99.90;;;;;;5062521;28;19984;-69
2022/08/29 00:05:26;;;;;;;;;;;16.90;99.90;;;;;;5064930;28;19963;-69
2022/08/29 00:07:53;;;;;;;;;;;16.80;99.90;;;;;;5066937;28;20000;-69
2022/08/29 00:10:20;;;;;;;;;;;16.90;99.90;;;;;;5067374;28;19983;-69
2022/08/29 00:12:47;;;;;;;;;;;16.80;99.90;;;;;;5066788;28;19943;-69
2022/08/29 00:15:15;;;;;;;;;;;16.80;99.90;;;;;;5083491;28;19980;-70
2022/08/29 00:17:43;;;;;;;;;;;16.80;99.90;;;;;;5084575;28;20105;-69
2022/08/29 00:20:11;;;;;;;;;;;16.80;99.90;;;;;;5067351;28;19920;-69
2022/08/29 00:22:38;;;;;;;;;;;16.80;99.90;;;;;;5066670;28;19921;-69
2022/08/29 00:25:05;;;;;;;;;;;16.80;99.90;;;;;;5066797;28;19980;-69
2022/08/29 00:27:32;;;;;;;;;;;16.70;99.90;;;;;;5066937;28;20175;-69
2022/08/29 00:29:58;;;;;;;;;;;16.70;99.90;;;;;;5084776;28;20200;-70
2022/08/29 00:32:25;;;;;;;;;;;16.70;99.90;;;;;;5077211;28;19984;-70
2022/08/29 00:34:53;;;;;;;;;;;16.60;99.90;;;;;;5079505;28;19927;-69
2022/08/29 00:37:20;;;;;;;;;;;16.60;99.90;;;;;;5086512;28;19983;-69
2022/08/29 00:39:47;;;;;;;;;;;16.60;99.90;;;;;;5070647;28;19920;-69
2022/08/29 00:42:13;;;;;;;;;;;16.60;99.90;;;;;;5066639;28;20337;-69
2022/08/29 00:44:40;;;;;;;;;;;16.50;99.90;;;;;;5065931;28;19956;-70
2022/08/29 00:47:08;;;;;;;;;;;16.50;99.90;;;;;;5066923;28;19952;-70
2022/08/29 00:49:39;;;;;;;;;;;16.50;99.90;;;;;;5080251;28;20179;-70
2022/08/29 00:52:10;;;;;;;;;;;16.40;99.90;;;;;;5086633;28;19928;-69
2022/08/29 00:54:38;;;;;;;;;;;16.40;99.90;;;;;;5085932;28;19982;-69
2022/08/29 00:57:05;;;;;;;;;;;16.50;99.90;;;;;;5086671;28;19927;-69
2022/08/29 00:59:34;;;;;;;;;;;16.40;99.90;;;;;;5073230;28;20246;-69
2022/08/29 01:02:02;;;;;;;;;;;16.40;99.90;;;;;;5083268;28;19927;-71
2022/08/29 01:04:28;;;;;;;;;;;16.40;99.90;;;;;;5085735;28;19951;-69
2022/08/29 01:06:55;;;;;;;;;;;16.40;99.90;;;;;;5086242;28;19956;-69
2022/08/29 01:09:24;;;;;;;;;;;16.40;99.90;;;;;;5076716;28;19928;-69
2022/08/29 01:14:35;;;;;;;;;;;16.30;99.90;;;;;;5079963;28;19990;-69
2022/08/29 01:17:03;;;;;;;;;;;16.30;99.90;;;;;;5067106;28;20227;-70
2022/08/29 01:19:36;;;;;;;;;;;16.30;99.90;;;;;;5066015;28;19989;-69
2022/08/29 01:22:06;;;;;;;;;;;16.30;99.90;;;;;;5065936;28;20189;-69
2022/08/29 01:24:38;;;;;;;;;;;16.20;99.90;;;;;;5065129;28;19963;-69
2022/08/29 01:27:05;;;;;;;;;;;16.20;99.90;;;;;;5079080;28;20216;-70
2022/08/29 01:29:31;;;;;;;;;;;16.20;99.90;;;;;;5080403;28;19928;-69
2022/08/29 01:31:58;;;;;;;;;;;16.10;99.90;;;;;;5065677;28;20232;-70
2022/08/29 01:34:25;;;;;;;;;;;16.00;99.90;;;;;;5066564;28;19921;-69
2022/08/29 01:36:54;;;;;;;;;;;16.00;99.90;;;;;;5079612;28;19953;-69
2022/08/29 01:39:22;;;;;;;;;;;15.90;99.90;;;;;;5085870;28;20150;-69
2022/08/29 01:41:51;;;;;;;;;;;15.90;99.90;;;;;;5085360;28;19966;-69
2022/08/29 01:44:19;;;;;;;;;;;15.90;99.90;;;;;;5084505;28;19920;-69
2022/08/29 01:46:46;;;;;;;;;;;15.90;99.90;;;;;;5084747;28;20156;-69
2022/08/29 01:49:14;;;;;;;;;;;15.80;99.90;;;;;;5073054;28;19985;-69
2022/08/29 01:51:41;;;;;;;;;;;15.70;99.90;;;;;;5065347;28;19959;-69
2022/08/29 01:54:09;;;;;;;;;;;15.70;99.90;;;;;;5064668;28;20158;-71
2022/08/29 01:56:36;;;;;;;;;;;15.60;99.90;;;;;;5065071;28;20172;-69
2022/08/29 01:59:05;;;;;;;;;;;15.60;99.90;;;;;;5065148;28;19963;-70
2022/08/29 02:01:34;;;;;;;;;;;15.60;99.90;;;;;;5065224;28;19956;-69
2022/08/29 02:04:01;;;;;;;;;;;15.60;99.90;;;;;;5076474;28;19987;-69
2022/08/29 02:06:28;;;;;;;;;;;15.60;99.90;;;;;;5073268;28;19921;-69
2022/08/29 02:08:55;;;;;;;;;;;15.50;99.90;;;;;;5081950;28;19921;-69
2022/08/29 02:11:22;;;;;;;;;;;15.50;99.90;;;;;;5085227;28;20111;-70
2022/08/29 02:13:50;;;;;;;;;;;15.50;99.90;;;;;;5084578;28;20111;-69
2022/08/29 02:16:19;;;;;;;;;;;15.40;99.90;;;;;;5075032;28;19984;-69
2022/08/29 02:18:45;;;;;;;;;;;15.40;99.90;;;;;;5064803;28;19920;-70
2022/08/29 02:21:13;;;;;;;;;;;15.40;99.90;;;;;;5064832;28;19988;-69
2022/08/29 02:23:40;;;;;;;;;;;15.40;99.90;;;;;;5063876;28;19983;-69
2022/08/29 02:26:07;;;;;;;;;;;15.40;99.90;;;;;;5072073;28;19988;-69
2022/08/29 02:28:34;;;;;;;;;;;15.30;99.90;;;;;;5076721;28;20164;-69
2022/08/29 02:31:02;;;;;;;;;;;15.30;99.90;;;;;;5064679;28;20148;-69
2022/08/29 02:33:30;;;;;;;;;;;15.30;99.90;;;;;;5064150;28;19956;-69
2022/08/29 02:35:58;;;;;;;;;;;15.30;99.90;;;;;;5070482;28;19928;-69
2022/08/29 02:38:24;;;;;;;;;;;15.30;99.90;;;;;;5084579;28;19920;-69
2022/08/29 02:40:52;;;;;;;;;;;15.30;99.90;;;;;;5084459;28;20119;-69
2022/08/29 02:43:20;;;;;;;;;;;15.30;99.90;;;;;;5083055;28;19920;-69
2022/08/29 02:45:47;;;;;;;;;;;15.30;99.90;;;;;;5081929;28;19927;-69
2022/08/29 02:48:13;;;;;;;;;;;15.20;99.90;;;;;;5083800;28;20204;-69
2022/08/29 02:50:42;;;;;;;;;;;15.20;99.90;;;;;;5083975;28;19920;-69
2022/08/29 02:53:10;;;;;;;;;;;15.30;99.90;;;;;;5073347;28;19952;-69
2022/08/29 02:55:37;;;;;;;;;;;15.20;99.90;;;;;;5064058;28;20220;-69
2022/08/29 02:58:04;;;;;;;;;;;15.20;99.90;;;;;;5064024;28;19920;-69
2022/08/29 03:00:32;;;;;;;;;;;15.20;99.90;;;;;;5064737;28;19921;-69
2022/08/29 03:02:58;;;;;;;;;;;15.10;99.90;;;;;;5063690;28;19969;-69
2022/08/29 03:05:26;;;;;;;;;;;15.10;99.90;;;;;;5064713;28;19939;-69
2022/08/29 03:07:54;;;;;;;;;;;15.10;99.90;;;;;;5083637;28;19927;-69
2022/08/29 03:10:21;;;;;;;;;;;15.10;99.90;;;;;;5084013;28;20183;-69
2022/08/29 03:12:48;;;;;;;;;;;15.00;99.90;;;;;;5083191;28;19987;-69
2022/08/29 03:15:15;;;;;;;;;;;15.00;99.90;;;;;;5083733;28;19927;-69
2022/08/29 03:17:42;;;;;;;;;;;15.00;99.90;;;;;;5061715;28;19952;-69
2022/08/29 03:20:09;;;;;;;;;;;14.90;99.90;;;;;;5063727;28;19995;-69
2022/08/29 03:22:36;;;;;;;;;;;14.90;99.90;;;;;;5063546;28;19927;-69
2022/08/29 03:25:06;;;;;;;;;;;14.90;99.90;;;;;;5063419;28;19956;-69
2022/08/29 03:27:33;;;;;;;;;;;14.90;99.90;;;;;;5063742;28;19956;-69
2022/08/29 03:29:59;;;;;;;;;;;14.90;99.90;;;;;;5063012;28;19984;-69
2022/08/29 03:32:26;;;;;;;;;;;14.80;99.90;;;;;;5063639;28;19944;-69
2022/08/29 03:34:53;;;;;;;;;;;14.80;99.90;;;;;;5063078;28;19921;-70
2022/08/29 03:37:20;;;;;;;;;;;14.80;99.90;;;;;;5063540;28;20172;-69
2022/08/29 03:39:47;;;;;;;;;;;14.80;99.90;;;;;;5062851;28;19959;-69
2022/08/29 03:42:15;;;;;;;;;;;14.80;99.90;;;;;;5063304;28;19980;-69
2022/08/29 03:44:42;;;;;;;;;;;14.80;99.90;;;;;;5062224;28;19984;-69
2022/08/29 03:47:09;;;;;;;;;;;14.70;99.90;;;;;;5063239;28;19924;-69
2022/08/29 03:49:35;;;;;;;;;;;14.80;99.90;;;;;;5062921;28;19921;-69
2022/08/29 03:52:03;;;;;;;;;;;14.70;99.90;;;;;;5063201;28;19928;-69
2022/08/29 03:54:29;;;;;;;;;;;14.70;99.90;;;;;;5062492;28;19927;-69
2022/08/29 03:56:56;;;;;;;;;;;14.70;99.90;;;;;;5062938;28;20000;-69
2022/08/29 03:59:24;;;;;;;;;;;14.60;99.90;;;;;;5062721;28;20115;-69
2022/08/29 04:01:51;;;;;;;;;;;14.60;99.90;;;;;;5063192;28;19983;-69
2022/08/29 04:07:00;;;;;;;;;;;14.60;99.90;;;;;;5061941;28;19921;-69
2022/08/29 04:09:26;;;;;;;;;;;14.50;99.90;;;;;;5062758;28;19921;-69
2022/08/29 04:11:53;;;;;;;;;;;14.50;99.90;;;;;;5062954;28;19927;-69
2022/08/29 04:14:20;;;;;;;;;;;14.50;99.90;;;;;;5062644;28;19967;-71
2022/08/29 04:16:49;;;;;;;;;;;14.50;99.90;;;;;;5063016;28;19959;-69
2022/08/29 04:19:17;;;;;;;;;;;14.50;99.90;;;;;;5087036;22;19943;-74
2022/08/29 04:21:44;;;;;;;;;;;14.50;99.90;;;;;;5063374;28;20003;-73
2022/08/29 04:24:11;;;;;;;;;;;14.40;99.90;;;;;;5074820;28;19924;-73
2022/08/29 04:26:39;;;;;;;;;;;14.40;99.90;;;;;;5082939;28;20108;-74
2022/08/29 04:29:06;;;;;;;;;;;14.40;99.90;;;;;;5080018;28;19943;-74
2022/08/29 04:31:32;;;;;;;;;;;14.40;99.90;;;;;;5080914;28;20187;-74
2022/08/29 04:34:00;;;;;;;;;;;14.40;99.90;;;;;;5082362;28;20282;-74
2022/08/29 04:36:27;;;;;;;;;;;14.30;99.90;;;;;;5083003;28;19980;-73
2022/08/29 04:38:54;;;;;;;;;;;14.30;99.90;;;;;;5082646;28;19924;-73
2022/08/29 04:41:23;;;;;;;;;;;14.30;99.90;;;;;;5080114;28;20111;-73
2022/08/29 04:43:50;;;;;;;;;;;14.30;99.90;;;;;;5101994;28;19984;-73
2022/08/29 04:46:17;;;;;;;;;;;14.30;99.90;;;;;;5103248;28;19920;-73
2022/08/29 04:48:44;;;;;;;;;;;14.30;99.90;;;;;;5085050;28;19983;-74
2022/08/29 04:51:12;;;;;;;;;;;14.30;99.90;;;;;;5083006;28;20189;-73
2022/08/29 04:53:38;;;;;;;;;;;14.30;99.90;;;;;;5085783;28;19920;-74
2022/08/29 04:56:07;;;;;;;;;;;14.30;99.90;;;;;;5086690;28;20186;-73
2022/08/29 04:58:34;;;;;;;;;;;14.30;99.90;;;;;;5086260;28;19959;-73
2022/08/29 05:01:01;;;;;;;;;;;14.30;99.90;;;;;;5086120;28;19951;-74
2022/08/29 05:03:28;;;;;;;;;;;14.30;99.90;;;;;;5085609;28;20254;-74
2022/08/29 05:05:55;;;;;;;;;;;14.40;99.90;;;;;;5086003;28;19920;-73
2022/08/29 05:08:23;;;;;;;;;;;14.40;99.90;;;;;;5089412;28;19920;-73
2022/08/29 05:10:50;;;;;;;;;;;14.40;99.90;;;;;;5106548;28;20204;-73
2022/08/29 05:13:17;;;;;;;;;;;14.40;99.90;;;;;;5105605;28;19955;-73
2022/08/29 05:15:43;;;;;;;;;;;14.30;99.90;;;;;;5085952;28;19924;-73
2022/08/29 05:18:10;;;;;;;;;;;14.30;99.90;;;;;;5085887;28;19928;-72
2022/08/29 05:20:39;;;;;;;;;;;14.30;99.90;;;;;;5085899;28;19988;-73
2022/08/29 05:23:05;;;;;;;;;;;14.30;99.90;;;;;;5086043;28;19930;-73
2022/08/29 05:25:33;;;;;;;;;;;14.30;99.90;;;;;;5085464;28;20269;-74
2022/08/29 05:28:00;;;;;;;;;;;14.30;99.90;;;;;;5086023;28;19920;-73
2022/08/29 05:30:27;;;;;;;;;;;14.40;99.90;;;;;;5085996;28;19951;-73
2022/08/29 05:32:54;;;;;;;;;;;14.40;99.90;;;;;;5085398;28;19921;-72
2022/08/29 05:35:21;;;;;;;;;;;14.50;99.90;;;;;;5085439;28;19921;-72
2022/08/29 05:37:48;;;;;;;;;;;14.50;99.90;;;;;;5094859;28;20174;-70
2022/08/29 05:40:14;;;;;;;;;;;14.60;99.90;;;;;;5105919;28;19920;-70
2022/08/29 05:42:43;;;;;;;;;;;14.50;99.90;;;;;;5097537;28;19978;-73
2022/08/29 05:45:10;;;;;;;;;;;14.60;99.90;;;;;;5087217;28;19920;-72
2022/08/29 05:47:36;;;;;;;;;;;14.60;99.90;;;;;;5085166;28;19927;-72
2022/08/29 05:50:03;;;;;;;;;;;14.60;99.90;;;;;;5084644;28;20103;-72
2022/08/29 05:52:30;;;;;;;;;;;14.60;99.90;;;;;;5102222;28;19927;-73
2022/08/29 05:54:57;;;;;;;;;;;14.70;99.90;;;;;;5091923;28;19951;-72
2022/08/29 05:57:23;;;;;;;;;;;14.70;99.90;;;;;;5084079;28;19921;-73
2022/08/29 05:59:52;;;;;;;;;;;14.70;99.90;;;;;;5101503;28;19927;-72
2022/08/29 06:02:20;;;;;;;;;;;14.70;99.90;;;;;;5105687;28;19920;-73
2022/08/29 06:04:46;;;;;;;;;;;14.70;99.90;;;;;;5101445;28;20048;-73
2022/08/29 06:07:14;;;;;;;;;;;14.80;99.90;;;;;;5100254;28;19987;-72
2022/08/29 06:09:41;;;;;;;;;;;14.90;99.90;;;;;;5098439;28;19991;-73
2022/08/29 06:12:08;;;;;;;;;;;14.90;99.90;;;;;;5106056;28;20254;-73
2022/08/29 06:14:35;;;;;;;;;;;15.00;99.90;;;;;;5088127;28;20223;-72
2022/08/29 06:17:03;;;;;;;;;;;15.10;99.90;;;;;;5085246;28;20251;-73
2022/08/29 06:19:33;;;;;;;;;;;15.10;99.90;;;;;;5085153;28;20149;-72
2022/08/29 06:22:02;;;;;;;;;;;15.20;99.90;;;;;;5085507;28;19921;-72
2022/08/29 06:24:28;;;;;;;;;;;15.30;99.90;;;;;;5088588;28;19927;-71
2022/08/29 06:26:55;;;;;;;;;;;15.30;99.90;;;;;;5083531;28;19983;-72
2022/08/29 06:29:22;;;;;;;;;;;15.40;99.90;;;;;;5084272;28;19955;-72
2022/08/29 06:31:48;;;;;;;;;;;15.40;99.90;;;;;;5084879;28;19927;-72
2022/08/29 06:34:16;;;;;;;;;;;15.50;99.90;;;;;;5083931;28;19920;-71
2022/08/29 06:36:43;;;;;;;;;;;15.50;99.90;;;;;;5084483;28;19985;-71
2022/08/29 06:39:11;;;;;;;;;;;15.60;99.90;;;;;;5083037;28;19975;-73
2022/08/29 06:41:39;;;;;;;;;;;15.70;99.90;;;;;;5082626;28;19928;-72
2022/08/29 06:44:06;;;;;;;;;;;15.80;99.90;;;;;;5080231;28;19928;-72
2022/08/29 06:46:33;;;;;;;;;;;15.80;99.90;;;;;;5084048;28;19984;-72
2022/08/29 06:49:01;;;;;;;;;;;15.90;99.90;;;;;;5084214;28;19983;-72
2022/08/29 06:51:31;;;;;;;;;;;15.90;99.90;;;;;;5084179;28;19979;-72
2022/08/29 06:53:58;;;;;;;;;;;16.00;99.90;;;;;;5067840;28;19963;-70
2022/08/29 06:56:25;;;;;;;;;;;16.00;99.90;;;;;;5101145;28;19976;-70
2022/08/29 06:58:51;;;;;;;;;;;16.10;99.90;;;;;;5084366;28;19956;-71
2022/08/29 07:01:19;;;;;;;;;;;16.20;99.90;;;;;;5084138;28;19963;-70
2022/08/29 07:03:46;;;;;;;;;;;16.30;99.90;;;;;;5083379;28;19955;-71
2022/08/29 07:06:12;;;;;;;;;;;16.50;99.90;;;;;;5083932;28;20198;-70
2022/08/29 07:08:40;;;;;;;;;;;16.60;99.90;;;;;;5083997;28;20335;-70
2022/08/29 07:11:07;;;;;;;;;;;16.70;99.90;;;;;;5075354;28;19984;-70
2022/08/29 07:13:34;;;;;;;;;;;16.70;99.90;;;;;;5080688;28;19988;-71
2022/08/29 07:16:01;;;;;;;;;;;16.70;99.90;;;;;;5082367;28;19924;-71
2022/08/29 07:18:27;;;;;;;;;;;16.80;99.90;;;;;;5082088;28;19951;-72
2022/08/29 07:20:54;;;;;;;;;;;16.90;99.90;;;;;;5084395;28;19927;-71
2022/08/29 07:23:21;;;;;;;;;;;16.90;99.90;;;;;;5083333;28;19927;-70
2022/08/29 07:25:50;;;;;;;;;;;17.00;99.90;;;;;;5082422;28;20263;-72
2022/08/29 07:28:17;;;;;;;;;;;17.00;99.90;;;;;;5083996;28;20251;-71
2022/08/29 07:30:44;;;;;;;;;;;17.10;99.90;;;;;;5083924;28;19956;-70
2022/08/29 07:33:10;;;;;;;;;;;17.20;99.90;;;;;;5083458;28;19920;-70
2022/08/29 07:35:37;;;;;;;;;;;17.30;99.90;;;;;;5084018;28;19921;-71
2022/08/29 07:38:04;;;;;;;;;;;17.30;99.90;;;;;;5083949;28;19980;-71
2022/08/29 07:40:31;;;;;;;;;;;17.40;99.90;;;;;;5084040;28;19920;-69
2022/08/29 07:42:59;;;;;;;;;;;17.50;99.90;;;;;;5083452;28;19991;-70
2022/08/29 07:45:25;;;;;;;;;;;17.60;99.90;;;;;;5083855;28;19964;-70
2022/08/29 07:47:52;;;;;;;;;;;17.70;99.90;;;;;;5083774;28;20239;-70
2022/08/29 07:50:20;;;;;;;;;;;17.80;99.90;;;;;;5083630;28;19920;-70
2022/08/29 07:52:47;;;;;;;;;;;17.90;99.90;;;;;;5083568;28;20157;-71
2022/08/29 07:55:13;;;;;;;;;;;18.10;99.90;;;;;;5083204;28;19921;-71
2022/08/29 07:57:40;;;;;;;;;;;18.10;99.90;;;;;;5083791;28;19921;-70
2022/08/29 08:00:10;;;;;;;;;;;18.20;99.90;;;;;;5081007;28;20144;-70
2022/08/29 08:02:37;;;;;;;;;;;18.30;99.90;;;;;;5069121;28;19920;-70
2022/08/29 08:05:04;;;;;;;;;;;18.40;99.90;;;;;;5083441;28;19920;-70
2022/08/29 08:07:33;;;;;;;;;;;18.40;99.90;;;;;;5083039;28;19983;-70
2022/08/29 08:10:00;;;;;;;;;;;18.50;99.90;;;;;;5083027;28;19973;-70
2022/08/29 08:12:27;;;;;;;;;;;18.60;99.90;;;;;;5083248;28;19952;-70
2022/08/29 08:14:54;;;;;;;;;;;18.70;99.90;;;;;;5088904;28;19979;-70
2022/08/29 08:17:22;;;;;;;;;;;18.80;99.90;;;;;;5103379;28;19982;-71
2022/08/29 08:19:48;;;;;;;;;;;18.90;99.90;;;;;;5103327;28;19920;-70
2022/08/29 08:22:15;;;;;;;;;;;19.00;99.90;;;;;;5083788;28;20220;-71
2022/08/29 08:24:42;;;;;;;;;;;19.00;99.90;;;;;;5080772;28;19948;-71
2022/08/29 08:27:09;;;;;;;;;;;19.00;99.90;;;;;;5082686;28;19920;-71
2022/08/29 08:29:48;;;;;;;;;;;19.10;99.90;;;;;;5086105;28;19933;-70
2022/08/29 08:32:14;;;;;;;;;;;19.20;99.90;;;;;;5074062;28;19959;-71
2022/08/29 08:34:43;;;;;;;;;;;19.40;99.90;;;;;;5086385;28;19920;-70
2022/08/29 08:37:10;;;;;;;;;;;19.50;99.90;;;;;;5086897;28;20179;-71
2022/08/29 08:39:37;;;;;;;;;;;19.60;99.90;;;;;;5078348;28;20184;-68
2022/08/29 08:42:12;;;;;;;;;;;19.60;99.90;;;;;;5081361;28;19920;-69
2022/08/29 08:44:54;;;;;;;;;;;19.70;99.90;;;;;;5068224;28;19993;-71
2022/08/29 08:47:24;;;;;;;;;;;19.70;99.90;;;;;;5067227;28;19920;-70
2022/08/29 08:49:54;;;;;;;;;;;19.80;99.90;;;;;;5067223;28;19920;-71
2022/08/29 08:52:25;;;;;;;;;;;19.90;99.90;;;;;;5064283;28;20231;-69
2022/08/29 08:54:53;;;;;;;;;;;20.00;99.90;;;;;;5066514;28;19956;-70
2022/08/29 08:57:20;;;;;;;;;;;20.10;99.90;;;;;;5076243;28;19963;-69
2022/08/29 08:59:49;;;;;;;;;;;20.10;99.90;;;;;;5107142;28;19942;-70
2022/08/29 09:02:20;;;;;;;;;;;20.20;99.90;;;;;;5107599;28;19921;-70
2022/08/29 09:04:53;;;;;;;;;;;20.40;99.90;;;;;;5106851;28;19983;-71
2022/08/29 09:07:30;;;;;;;;;;;20.40;99.90;;;;;;5107247;28;20222;-70
2022/08/29 09:10:02;;;;;;;;;;;20.40;99.90;;;;;;5107237;28;19983;-71
2022/08/29 09:12:34;;;;;;;;;;;20.40;99.90;;;;;;5106770;28;20222;-71
2022/08/29 09:15:04;;;;;;;;;;;20.50;99.90;;;;;;5066351;28;19966;-70
2022/08/29 09:17:35;;;;;;;;;;;20.50;99.90;;;;;;5066667;28;20107;-69
2022/08/29 09:20:04;;;;;;;;;;;20.60;99.90;;;;;;5066529;28;19921;-70
2022/08/29 09:22:34;;;;;;;;;;;20.80;99.90;;;;;;5066617;28;20116;-70
2022/08/29 09:25:01;;;;;;;;;;;20.90;99.90;;;;;;5069692;28;19965;-70
2022/08/29 09:27:29;;;;;;;;;;;21.00;99.90;;;;;;5086694;28;19959;-71
2022/08/29 09:30:01;;;;;;;;;;;21.00;99.90;;;;;;5086623;28;19921;-72
2022/08/29 09:32:27;;;;;;;;;;;21.10;99.90;;;;;;5086566;28;19952;-70
2022/08/29 09:34:54;;;;;;;;;;;21.20;99.90;;;;;;5085643;28;20420;-70
2022/08/29 09:37:26;;;;;;;;;;;21.30;99.90;;;;;;5085822;28;20200;-70
2022/08/29 09:39:57;;;;;;;;;;;21.40;99.90;;;;;;5086183;28;19947;-71
2022/08/29 09:42:29;;;;;;;;;;;21.50;99.90;;;;;;5092381;28;19964;-72
2022/08/29 09:44:57;;;;;;;;;;;21.60;99.90;;;;;;5105792;28;20307;-73
2022/08/29 09:47:25;;;;;;;;;;;21.80;99.90;;;;;;5106186;28;19999;-71
2022/08/29 09:50:00;;;;;;;;;;;21.90;99.90;;;;;;5106462;28;19920;-71
2022/08/29 09:52:27;;;;;;;;;;;21.90;99.90;;;;;;5106065;28;20169;-71
2022/08/29 09:54:55;;;;;;;;;;;22.00;99.90;;;;;;5087596;28;19959;-70
2022/08/29 09:57:23;;;;;;;;;;;22.20;99.90;;;;;;5086089;28;19948;-70
2022/08/29 10:00:05;;;;;;;;;;;22.30;99.90;;;;;;5086161;28;19927;-70
2022/08/29 10:02:36;;;;;;;;;;;22.40;99.90;;;;;;5085434;28;19920;-71
2022/08/29 10:05:06;;;;;;;;;;;22.50;99.90;;;;;;5083358;28;19983;-71
2022/08/29 10:07:34;;;;;;;;;;;22.60;99.90;;;;;;5084977;28;19920;-71
2022/08/29 10:10:05;;;;;;;;;;;22.70;99.90;;;;;;5085541;28;19983;-70
2022/08/29 10:12:36;;;;;;;;;;;22.70;99.90;;;;;;5085061;28;19952;-70
2022/08/29 10:15:04;;;;;;;;;;;22.90;99.90;;;;;;5065174;28;19983;-71
2022/08/29 10:20:17;;;;;;;;;;;23.20;99.90;;;;;;5094617;22;20234;-69
2022/08/29 10:22:48;;;;;;;;;;;23.20;99.90;;;;;;5080614;28;19928;-68
2022/08/29 10:25:19;;;;;;;;;;;23.20;99.90;;;;;;5083480;28;19927;-68
2022/08/29 10:27:49;;;;;;;;;;;23.10;99.90;;;;;;5083073;28;19962;-68
2022/08/29 10:30:17;;;;;;;;;;;23.10;99.90;;;;;;5064775;28;20034;-68
2022/08/29 10:32:53;;;;;;;;;;;23.00;99.90;;;;;;5074756;28;19920;-68
2022/08/29 10:35:24;;;;;;;;;;;23.00;99.90;;;;;;5084492;28;19926;-68
2022/08/29 10:37:54;;;;;;;;;;;22.90;99.90;;;;;;5099012;28;19958;-69
2022/08/29 10:40:25;;;;;;;;;;;22.90;99.90;;;;;;5104998;28;19987;-69
2022/08/29 10:42:55;;;;;;;;;;;23.00;99.90;;;;;;5096939;28;19956;-68
2022/08/29 10:45:24;;;;;;;;;;;23.20;99.90;;;;;;5084524;28;19920;-68
2022/08/29 10:47:52;;;;;;;;;;;23.30;99.90;;;;;;5068269;28;19988;-68
2022/08/29 10:50:27;;;;;;;;;;;23.50;99.90;;;;;;5083174;28;20119;-66
2022/08/29 10:52:59;;;;;;;;;;;23.60;99.90;;;;;;5080566;28;20176;-66
2022/08/29 10:55:35;;;;;;;;;;;23.70;99.90;;;;;;5080594;28;19921;-66
2022/08/29 10:58:03;;;;;;;;;;;23.90;99.90;;;;;;5083895;28;19928;-68
2022/08/29 11:00:36;;;;;;;;;;;24.00;99.90;;;;;;5083793;28;19956;-69
2022/08/29 11:03:06;;;;;;;;;;;24.10;99.90;;;;;;5084118;28;19921;-69
2022/08/29 11:05:35;;;;;;;;;;;24.10;99.90;;;;;;5083818;28;20265;-69
2022/08/29 11:08:04;;;;;;;;;;;24.10;99.90;;;;;;5084284;28;19952;-69
2022/08/29 11:10:39;;;;;;;;;;;24.00;99.90;;;;;;5084172;28;19920;-69
2022/08/29 11:13:09;;;;;;;;;;;24.00;99.90;;;;;;5083948;28;19981;-68
2022/08/29 11:15:39;;;;;;;;;;;23.80;99.90;;;;;;5084227;28;19975;-68
2022/08/29 11:18:09;;;;;;;;;;;23.60;99.90;;;;;;5083814;28;19928;-68
2022/08/29 11:20:39;;;;;;;;;;;23.60;99.90;;;;;;5090800;28;19983;-68
2022/08/29 11:23:08;;;;;;;;;;;23.70;99.90;;;;;;5089328;28;19960;-68
2022/08/29 11:25:40;;;;;;;;;;;23.80;99.90;;;;;;5083883;28;19920;-68
2022/08/29 11:28:12;;;;;;;;;;;23.90;99.90;;;;;;5083568;28;19927;-68
2022/08/29 11:30:41;;;;;;;;;;;23.90;99.90;;;;;;5082884;28;19921;-68
2022/08/29 11:33:13;;;;;;;;;;;24.00;99.90;;;;;;5073177;28;20120;-69
2022/08/29 11:35:45;;;;;;;;;;;24.10;99.90;;;;;;5084697;28;19926;-68
2022/08/29 11:38:19;;;;;;;;;;;24.30;99.90;;;;;;5092780;28;20234;-69
2022/08/29 11:40:56;;;;;;;;;;;24.40;99.90;;;;;;5075554;28;19955;-69
2022/08/29 11:43:25;;;;;;;;;;;24.60;99.90;;;;;;5066210;28;19920;-66
2022/08/29 11:45:56;;;;;;;;;;;24.80;99.90;;;;;;5066031;28;19952;-66
2022/08/29 11:48:30;;;;;;;;;;;25.00;99.90;;;;;;5079945;28;19982;-66
2022/08/29 11:50:57;;;;;;;;;;;25.20;99.90;;;;;;5082487;28;19921;-67
2022/08/29 11:53:32;;;;;;;;;;;25.30;99.90;;;;;;5062941;28;19952;-67
2022/08/29 11:56:18;;;;;;;;;;;25.30;99.90;;;;;;5067259;28;20151;-66
2022/08/29 11:58:46;;;;;;;;;;;25.30;99.90;;;;;;5082649;28;19999;-66
2022/08/29 12:01:36;;;;;;;;;;;25.60;99.90;;;;;;5083071;28;19920;-67
2022/08/29 12:04:04;;;;;;;;;;;25.90;99.90;;;;;;5084463;28;19927;-66
2022/08/29 12:06:51;;;;;;;;;;;26.10;99.90;;;;;;5082988;28;20266;-66
2022/08/29 12:09:36;;;;;;;;;;;26.10;99.90;;;;;;5083351;28;19927;-67
2022/08/29 12:12:27;;;;;;;;;;;26.20;99.90;;;;;;5082933;28;19980;-67
2022/08/29 12:14:55;;;;;;;;;;;26.10;99.90;;;;;;5082936;28;19920;-66
2022/08/29 12:17:40;;;;;;;;;;;25.80;99.90;;;;;;5092861;28;19952;-67
2022/08/29 12:20:14;;;;;;;;;;;25.70;99.90;;;;;;5103231;28;19920;-66
2022/08/29 12:22:44;;;;;;;;;;;25.40;99.90;;;;;;5088950;28;20088;-68
2022/08/29 12:25:25;;;;;;;;;;;25.20;99.90;;;;;;5083045;28;19955;-67
2022/08/29 12:28:00;;;;;;;;;;;25.00;99.90;;;;;;5074171;28;19991;-66
2022/08/29 12:30:30;;;;;;;;;;;24.90;99.90;;;;;;5082837;28;19921;-66
2022/08/29 12:33:03;;;;;;;;;;;24.80;99.90;;;;;;5083357;28;19927;-66
2022/08/29 12:35:58;;;;;;;;;;;24.90;99.90;;;;;;5082931;28;19956;-66
2022/08/29 12:38:30;;;;;;;;;;;25.20;99.90;;;;;;5083176;28;20176;-66
2022/08/29 12:41:08;;;;;;;;;;;25.60;99.90;;;;;;5082976;28;20116;-67
2022/08/29 12:43:36;;;;;;;;;;;25.80;99.90;;;;;;5074782;28;20096;-67
2022/08/29 12:46:10;;;;;;;;;;;26.00;99.90;;;;;;5081573;28;19920;-68
2022/08/29 12:48:39;;;;;;;;;;;26.20;99.90;;;;;;5078181;28;19929;-67
2022/08/29 12:51:05;;;;;;;;;;;26.50;99.90;;;;;;5081910;28;19927;-67
2022/08/29 12:53:33;;;;;;;;;;;26.80;99.90;;;;;;5081728;28;19947;-66
2022/08/29 12:56:01;;;;;;;;;;;27.00;99.90;;;;;;5083297;28;20124;-67
2022/08/29 12:58:33;;;;;;;;;;;27.30;99.90;;;;;;5076857;28;19986;-67
2022/08/29 13:01:00;;;;;;;;;;;27.10;99.90;;;;;;5065854;28;19920;-67
2022/08/29 13:03:28;;;;;;;;;;;27.30;99.90;;;;;;5081913;28;19988;-67
2022/08/29 13:06:03;;;;;;;;;;;27.30;99.90;;;;;;5082726;28;19984;-67
2022/08/29 13:08:31;;;;;;;;;;;27.30;99.90;;;;;;5082597;28;19952;-67
2022/08/29 13:10:59;;;;;;;;;;;27.20;99.90;;;;;;5065644;28;19921;-67
2022/08/29 13:13:26;;;;;;;;;;;27.20;99.90;;;;;;5083420;28;19959;-68
2022/08/29 13:15:54;;;;;;;;;;;27.10;99.90;;;;;;5078174;28;19959;-67
2022/08/29 13:18:21;;;;;;;;;;;27.00;99.90;;;;;;5077460;28;19920;-68
2022/08/29 13:21:01;;;;;;;;;;;27.00;99.90;;;;;;5081586;28;20769;-67
2022/08/29 13:23:28;;;;;;;;;;;27.00;99.90;;;;;;5085107;28;20211;-67
2022/08/29 13:25:57;;;;;;;;;;;26.90;99.90;;;;;;5085849;28;19927;-67
2022/08/29 13:28:27;;;;;;;;;;;27.00;99.90;;;;;;5068507;28;19996;-67
2022/08/29 13:31:21;;;;;;;;;;;27.30;99.90;;;;;;5085252;28;19960;-67
2022/08/29 13:34:01;;;;;;;;;;;27.50;99.90;;;;;;5049115;28;19927;-67
2022/08/29 13:36:30;;;;;;;;;;;27.80;99.90;;;;;;5085672;28;19952;-67
2022/08/29 13:39:11;;;;;;;;;;;27.90;99.90;;;;;;5085442;28;19991;-67
2022/08/29 13:41:38;;;;;;;;;;;28.00;99.90;;;;;;5076177;28;19928;-68
2022/08/29 13:44:05;;;;;;;;;;;28.00;99.90;;;;;;5065072;28;19959;-67
2022/08/29 13:46:32;;;;;;;;;;;28.00;99.90;;;;;;5081859;28;19952;-68
2022/08/29 13:48:59;;;;;;;;;;;28.20;99.90;;;;;;5099035;28;19927;-68
2022/08/29 13:51:27;;;;;;;;;;;28.50;99.90;;;;;;5085583;28;19935;-68
2022/08/29 13:53:55;;;;;;;;;;;28.80;99.90;;;;;;5084965;28;19920;-68
2022/08/29 13:56:24;;;;;;;;;;;29.00;99.90;;;;;;5085279;28;19920;-68
2022/08/29 13:58:51;;;;;;;;;;;29.20;99.90;;;;;;5065935;28;20271;-68
2022/08/29 14:01:21;;;;;;;;;;;29.10;99.90;;;;;;5071395;28;19955;-67
2022/08/29 14:03:47;;;;;;;;;;;29.00;99.90;;;;;;5081970;28;19921;-67
2022/08/29 14:06:15;;;;;;;;;;;29.10;99.90;;;;;;5071227;28;19992;-67
2022/08/29 14:08:42;;;;;;;;;;;29.40;99.90;;;;;;5082472;28;20127;-68
2022/08/29 14:11:10;;;;;;;;;;;29.50;99.90;;;;;;5083727;28;20118;-67
2022/08/29 14:13:36;;;;;;;;;;;29.30;99.90;;;;;;5076255;28;19928;-67
2022/08/29 14:16:03;;;;;;;;;;;29.30;99.90;;;;;;5077038;28;19920;-67
2022/08/29 14:18:30;;;;;;;;;;;29.30;99.90;;;;;;5084710;28;20227;-68
2022/08/29 14:20:56;;;;;;;;;;;29.40;99.90;;;;;;5082875;28;19948;-68
2022/08/29 14:23:23;;;;;;;;;;;29.40;99.90;;;;;;5083496;28;19936;-67
2022/08/29 14:25:50;;;;;;;;;;;29.30;99.90;;;;;;5082392;28;20162;-67
2022/08/29 14:28:18;;;;;;;;;;;29.30;99.90;;;;;;5079255;28;19988;-68
2022/08/29 14:30:44;;;;;;;;;;;29.10;99.90;;;;;;5086754;28;19983;-68
2022/08/29 14:33:11;;;;;;;;;;;28.80;99.90;;;;;;5082279;28;20102;-67